sensor_id;sensor_type;location;lat;lon;timestamp;temperature;humidity
24410;DHT22;12543;53.364;-1.504;2022-09-09T00:01:54;16.00;99.90
24410;DHT22;12543;53.364;-1.504;2022-09-09T00:04:33;16.00;99.90
24410;DHT22;12543;53.364;-1.504;2022-09-09T00:07:05;16.00;99.90
24410;DHT22;12543;53.364;-1.504;2022-09-09T00:09:45;15.90;99.90
24410;DHT22;12543;53.364;-1.504;2022-09-09T00:12:15;16.00;99.90
24410;DHT22;12543;53.364;-1.504;2022-09-09T00:14:54;15.90;99.90
24410;DHT22;12543;53.364;-1.504;2022-09-09T00:22:53;15.90;99.90
24410;DHT22;12543;53.364;-1.504;2022-09-09T00:25:32;15.90;99.90
24410;DHT22;12543;53.364;-1.504;2022-09-09T00:28:00;15.90;99.90
24410;DHT22;12543;53.364;-1.504;2022-09-09T00:30:32;15.90;99.90
24410;DHT22;12543;53.364;-1.504;2022-09-09T00:33:09;15.90;99.90
24410;DHT22;12543;53.364;-1.504;2022-09-09T00:35:44;15.90;99.90
24410;DHT22;12543;53.364;-1.504;2022-09-09T00:38:18;15.90;99.90
24410;DHT22;12543;53.364;-1.504;2022-09-09T00:40:50;15.90;99.90
24410;DHT22;12543;53.364;-1.504;2022-09-09T00:43:32;15.90;99.90
24410;DHT22;12543;53.364;-1.504;2022-09-09T00:52:08;15.90;99.90
24410;DHT22;12543;53.364;-1.504;2022-09-09T00:57:30;15.90;99.90
24410;DHT22;12543;53.364;-1.504;2022-09-09T01:08:08;15.90;99.90
24410;DHT22;12543;53.364;-1.504;2022-09-09T01:10:52;15.90;99.90
24410;DHT22;12543;53.364;-1.504;2022-09-09T01:13:32;15.90;99.90
24410;DHT22;12543;53.364;-1.504;2022-09-09T01:16:10;15.90;99.90
24410;DHT22;12543;53.364;-1.504;2022-09-09T01:18:44;15.90;99.90
24410;DHT22;12543;53.364;-1.504;2022-09-09T01:27:06;15.90;99.90
24410;DHT22;12543;53.364;-1.504;2022-09-09T01:29:34;15.90;99.90
24410;DHT22;12543;53.364;-1.504;2022-09-09T01:42:22;15.90;99.90
24410;DHT22;12543;53.364;-1.504;2022-09-09T01:44:49;15.90;99.90
24410;DHT22;12543;53.364;-1.504;2022-09-09T01:47:16;15.90;99.90
24410;DHT22;12543;53.364;-1.504;2022-09-09T01:50:15;15.90;99.90
24410;DHT22;12543;53.364;-1.504;2022-09-09T01:52:46;15.90;99.90
24410;DHT22;12543;53.364;-1.504;2022-09-09T01:55:16;15.90;99.90
24410;DHT22;12543;53.364;-1.504;2022-09-09T01:57:55;15.90;99.90
24410;DHT22;12543;53.364;-1.504;2022-09-09T02:00:24;15.90;99.90
24410;DHT22;12543;53.364;-1.504;2022-09-09T02:03:08;15.90;99.90
24410;DHT22;12543;53.364;-1.504;2022-09-09T02:06:04;15.90;99.90
24410;DHT22;12543;53.364;-1.504;2022-09-09T02:08:49;15.90;99.90
24410;DHT22;12543;53.364;-1.504;2022-09-09T02:11:19;15.90;99.90
24410;DHT22;12543;53.364;-1.504;2022-09-09T02:14:11;15.90;99.90
24410;DHT22;12543;53.364;-1.504;2022-09-09T02:16:44;15.90;99.90
24410;DHT22;12543;53.364;-1.504;2022-09-09T02:22:00;15.80;99.90
24410;DHT22;12543;53.364;-1.504;2022-09-09T02:24:30;15.80;99.90
24410;DHT22;12543;53.364;-1.504;2022-09-09T02:27:22;15.80;99.90
24410;DHT22;12543;53.364;-1.504;2022-09-09T02:29:51;15.80;99.90
24410;DHT22;12543;53.364;-1.504;2022-09-09T02:32:32;15.80;99.90
24410;DHT22;12543;53.364;-1.504;2022-09-09T02:35:08;15.80;99.90
24410;DHT22;12543;53.364;-1.504;2022-09-09T02:37:39;15.80;99.90
24410;DHT22;12543;53.364;-1.504;2022-09-09T02:40:10;15.80;99.90
24410;DHT22;12543;53.364;-1.504;2022-09-09T02:42:43;15.80;99.90
24410;DHT22;12543;53.364;-1.504;2022-09-09T02:45:13;15.80;99.90
24410;DHT22;12543;53.364;-1.504;2022-09-09T02:48:09;15.80;99.90
24410;DHT22;12543;53.364;-1.504;2022-09-09T02:53:43;15.80;99.90
24410;DHT22;12543;53.364;-1.504;2022-09-09T02:56:16;15.80;99.90
24410;DHT22;12543;53.364;-1.504;2022-09-09T02:58:47;15.80;99.90
24410;DHT22;12543;53.364;-1.504;2022-09-09T03:01:14;15.80;99.90
24410;DHT22;12543;53.364;-1.504;2022-09-09T03:03:41;15.80;99.90
24410;DHT22;12543;53.364;-1.504;2022-09-09T03:06:13;15.80;99.90
24410;DHT22;12543;53.364;-1.504;2022-09-09T03:08:43;15.80;99.90
24410;DHT22;12543;53.364;-1.504;2022-09-09T03:11:20;15.70;99.90
24410;DHT22;12543;53.364;-1.504;2022-09-09T03:13:47;15.70;99.90
24410;DHT22;12543;53.364;-1.504;2022-09-09T03:16:17;15.70;99.90
24410;DHT22;12543;53.364;-1.504;2022-09-09T03:18:47;15.70;99.90
24410;DHT22;12543;53.364;-1.504;2022-09-09T03:21:15;15.70;99.90
24410;DHT22;12543;53.364;-1.504;2022-09-09T03:23:43;15.70;99.90
24410;DHT22;12543;53.364;-1.504;2022-09-09T03:26:12;15.70;99.90
24410;DHT22;12543;53.364;-1.504;2022-09-09T03:28:44;15.70;99.90
24410;DHT22;12543;53.364;-1.504;2022-09-09T03:31:14;15.70;99.90
24410;DHT22;12543;53.364;-1.504;2022-09-09T03:33:42;15.70;99.90
24410;DHT22;12543;53.364;-1.504;2022-09-09T03:36:12;15.70;99.90
24410;DHT22;12543;53.364;-1.504;2022-09-09T03:38:39;15.70;99.90
24410;DHT22;12543;53.364;-1.504;2022-09-09T03:41:07;15.70;99.90
24410;DHT22;12543;53.364;-1.504;2022-09-09T03:43:35;15.70;99.90
24410;DHT22;12543;53.364;-1.504;2022-09-09T03:46:03;15.70;99.90
24410;DHT22;12543;53.364;-1.504;2022-09-09T03:48:31;15.70;99.90
24410;DHT22;12543;53.364;-1.504;2022-09-09T03:50:58;15.70;99.90
24410;DHT22;12543;53.364;-1.504;2022-09-09T03:53:30;15.70;99.90
24410;DHT22;12543;53.364;-1.504;2022-09-09T03:55:57;15.70;99.90
24410;DHT22;12543;53.364;-1.504;2022-09-09T03:58:27;15.70;99.90
24410;DHT22;12543;53.364;-1.504;2022-09-09T04:01:11;15.70;99.90
24410;DHT22;12543;53.364;-1.504;2022-09-09T04:03:43;15.70;99.90
24410;DHT22;12543;53.364;-1.504;2022-09-09T04:06:13;15.70;99.90
24410;DHT22;12543;53.364;-1.504;2022-09-09T04:08:44;15.70;99.90
24410;DHT22;12543;53.364;-1.504;2022-09-09T04:11:13;15.70;99.90
24410;DHT22;12543;53.364;-1.504;2022-09-09T04:13:41;15.60;99.90
24410;DHT22;12543;53.364;-1.504;2022-09-09T04:16:11;15.60;99.90
24410;DHT22;12543;53.364;-1.504;2022-09-09T04:18:42;15.60;99.90
24410;DHT22;12543;53.364;-1.504;2022-09-09T04:21:09;15.60;99.90
24410;DHT22;12543;53.364;-1.504;2022-09-09T04:23:37;15.60;99.90
24410;DHT22;12543;53.364;-1.504;2022-09-09T04:26:05;15.60;99.90
24410;DHT22;12543;53.364;-1.504;2022-09-09T04:28:36;15.60;99.90
24410;DHT22;12543;53.364;-1.504;2022-09-09T04:31:20;15.60;99.90
24410;DHT22;12543;53.364;-1.504;2022-09-09T04:33:53;15.60;99.90
24410;DHT22;12543;53.364;-1.504;2022-09-09T04:36:21;15.60;99.90
24410;DHT22;12543;53.364;-1.504;2022-09-09T04:38:51;15.60;99.90
24410;DHT22;12543;53.364;-1.504;2022-09-09T04:41:18;15.60;99.90
24410;DHT22;12543;53.364;-1.504;2022-09-09T04:43:49;15.60;99.90
24410;DHT22;12543;53.364;-1.504;2022-09-09T04:46:16;15.60;99.90
24410;DHT22;12543;53.364;-1.504;2022-09-09T04:48:46;15.60;99.90
24410;DHT22;12543;53.364;-1.504;2022-09-09T04:51:15;15.60;99.90
24410;DHT22;12543;53.364;-1.504;2022-09-09T04:53:44;15.60;99.90
24410;DHT22;12543;53.364;-1.504;2022-09-09T04:56:15;15.60;99.90
24410;DHT22;12543;53.364;-1.504;2022-09-09T04:58:48;15.60;99.90
24410;DHT22;12543;53.364;-1.504;2022-09-09T05:01:18;15.60;99.90
24410;DHT22;12543;53.364;-1.504;2022-09-09T05:03:47;15.60;99.90
24410;DHT22;12543;53.364;-1.504;2022-09-09T05:06:20;15.60;99.90
24410;DHT22;12543;53.364;-1.504;2022-09-09T05:08:50;15.60;99.90
24410;DHT22;12543;53.364;-1.504;2022-09-09T05:11:27;15.60;99.90
24410;DHT22;12543;53.364;-1.504;2022-09-09T05:13:59;15.60;99.90
24410;DHT22;12543;53.364;-1.504;2022-09-09T05:16:29;15.60;99.90
24410;DHT22;12543;53.364;-1.504;2022-09-09T05:18:57;15.60;99.90
24410;DHT22;12543;53.364;-1.504;2022-09-09T05:21:25;15.60;99.90
24410;DHT22;12543;53.364;-1.504;2022-09-09T05:23:54;15.60;99.90
24410;DHT22;12543;53.364;-1.504;2022-09-09T05:26:22;15.60;99.90
24410;DHT22;12543;53.364;-1.504;2022-09-09T05:28:51;15.60;99.90
24410;DHT22;12543;53.364;-1.504;2022-09-09T05:31:19;15.60;99.90
24410;DHT22;12543;53.364;-1.504;2022-09-09T05:33:49;15.60;99.90
24410;DHT22;12543;53.364;-1.504;2022-09-09T05:36:18;15.60;99.90
24410;DHT22;12543;53.364;-1.504;2022-09-09T05:38:49;15.60;99.90
24410;DHT22;12543;53.364;-1.504;2022-09-09T05:41:17;15.60;99.90
24410;DHT22;12543;53.364;-1.504;2022-09-09T05:43:46;15.60;99.90
24410;DHT22;12543;53.364;-1.504;2022-09-09T05:46:19;15.60;99.90
24410;DHT22;12543;53.364;-1.504;2022-09-09T05:48:50;15.60;99.90
24410;DHT22;12543;53.364;-1.504;2022-09-09T05:51:25;15.60;99.90
24410;DHT22;12543;53.364;-1.504;2022-09-09T05:53:55;15.60;99.90
24410;DHT22;12543;53.364;-1.504;2022-09-09T05:56:28;15.60;99.90
24410;DHT22;12543;53.364;-1.504;2022-09-09T05:58:58;15.60;99.90
24410;DHT22;12543;53.364;-1.504;2022-09-09T06:01:29;15.60;99.90
24410;DHT22;12543;53.364;-1.504;2022-09-09T06:03:58;15.60;99.90
24410;DHT22;12543;53.364;-1.504;2022-09-09T06:06:27;15.60;99.90
24410;DHT22;12543;53.364;-1.504;2022-09-09T06:08:57;15.60;99.90
24410;DHT22;12543;53.364;-1.504;2022-09-09T06:11:31;15.60;99.90
24410;DHT22;12543;53.364;-1.504;2022-09-09T06:13:59;15.60;99.90
24410;DHT22;12543;53.364;-1.504;2022-09-09T06:16:29;15.70;99.90
24410;DHT22;12543;53.364;-1.504;2022-09-09T06:18:57;15.60;99.90
24410;DHT22;12543;53.364;-1.504;2022-09-09T06:21:31;15.70;99.90
24410;DHT22;12543;53.364;-1.504;2022-09-09T06:24:01;15.70;99.90
24410;DHT22;12543;53.364;-1.504;2022-09-09T06:26:33;15.70;99.90
24410;DHT22;12543;53.364;-1.504;2022-09-09T06:29:03;15.70;99.90
24410;DHT22;12543;53.364;-1.504;2022-09-09T06:31:32;15.70;99.90
24410;DHT22;12543;53.364;-1.504;2022-09-09T06:34:08;15.70;99.90
24410;DHT22;12543;53.364;-1.504;2022-09-09T06:36:40;15.70;99.90
24410;DHT22;12543;53.364;-1.504;2022-09-09T06:39:07;15.70;99.90
24410;DHT22;12543;53.364;-1.504;2022-09-09T06:41:41;15.70;99.90
24410;DHT22;12543;53.364;-1.504;2022-09-09T06:44:28;15.70;99.90
24410;DHT22;12543;53.364;-1.504;2022-09-09T06:47:02;15.70;99.90
24410;DHT22;12543;53.364;-1.504;2022-09-09T06:49:29;15.70;99.90
24410;DHT22;12543;53.364;-1.504;2022-09-09T06:51:56;15.80;99.90
24410;DHT22;12543;53.364;-1.504;2022-09-09T06:54:24;15.70;99.90
24410;DHT22;12543;53.364;-1.504;2022-09-09T06:56:53;15.80;99.90
24410;DHT22;12543;53.364;-1.504;2022-09-09T06:59:23;15.80;99.90
24410;DHT22;12543;53.364;-1.504;2022-09-09T07:01:53;15.80;99.90
24410;DHT22;12543;53.364;-1.504;2022-09-09T07:04:25;15.80;99.90
24410;DHT22;12543;53.364;-1.504;2022-09-09T07:06:54;15.80;99.90
24410;DHT22;12543;53.364;-1.504;2022-09-09T07:09:23;15.80;99.90
24410;DHT22;12543;53.364;-1.504;2022-09-09T07:11:52;15.80;99.90
24410;DHT22;12543;53.364;-1.504;2022-09-09T07:14:21;15.80;99.90
24410;DHT22;12543;53.364;-1.504;2022-09-09T07:16:59;15.80;99.90
24410;DHT22;12543;53.364;-1.504;2022-09-09T07:19:32;15.80;99.90
24410;DHT22;12543;53.364;-1.504;2022-09-09T07:22:00;15.80;99.90
24410;DHT22;12543;53.364;-1.504;2022-09-09T07:24:31;15.80;99.90
24410;DHT22;12543;53.364;-1.504;2022-09-09T07:26:58;15.80;99.90
24410;DHT22;12543;53.364;-1.504;2022-09-09T07:29:26;15.80;99.90
24410;DHT22;12543;53.364;-1.504;2022-09-09T07:31:53;15.90;99.90
24410;DHT22;12543;53.364;-1.504;2022-09-09T07:34:26;15.90;99.90
24410;DHT22;12543;53.364;-1.504;2022-09-09T07:36:53;15.90;99.90
24410;DHT22;12543;53.364;-1.504;2022-09-09T07:39:20;15.90;99.90
24410;DHT22;12543;53.364;-1.504;2022-09-09T07:41:51;15.90;99.90
24410;DHT22;12543;53.364;-1.504;2022-09-09T07:44:23;15.90;99.90
24410;DHT22;12543;53.364;-1.504;2022-09-09T07:47:04;15.90;99.90
24410;DHT22;12543;53.364;-1.504;2022-09-09T07:49:36;15.90;99.90
24410;DHT22;12543;53.364;-1.504;2022-09-09T07:52:05;15.90;99.90
24410;DHT22;12543;53.364;-1.504;2022-09-09T07:54:34;15.90;99.90
24410;DHT22;12543;53.364;-1.504;2022-09-09T07:57:04;15.90;99.90
24410;DHT22;12543;53.364;-1.504;2022-09-09T07:59:34;15.90;99.90
24410;DHT22;12543;53.364;-1.504;2022-09-09T08:02:02;15.90;99.90
24410;DHT22;12543;53.364;-1.504;2022-09-09T08:04:32;15.90;99.90
24410;DHT22;12543;53.364;-1.504;2022-09-09T08:07:00;15.90;99.90
24410;DHT22;12543;53.364;-1.504;2022-09-09T08:09:32;15.90;99.90
24410;DHT22;12543;53.364;-1.504;2022-09-09T08:12:06;15.90;99.90
24410;DHT22;12543;53.364;-1.504;2022-09-09T08:14:35;15.90;99.90
24410;DHT22;12543;53.364;-1.504;2022-09-09T08:17:03;15.90;99.90
24410;DHT22;12543;53.364;-1.504;2022-09-09T08:19:32;15.90;99.90
24410;DHT22;12543;53.364;-1.504;2022-09-09T08:22:07;15.90;99.90
24410;DHT22;12543;53.364;-1.504;2022-09-09T08:24:37;16.00;99.90
24410;DHT22;12543;53.364;-1.504;2022-09-09T08:27:04;16.00;99.90
24410;DHT22;12543;53.364;-1.504;2022-09-09T08:29:31;16.00;99.90
24410;DHT22;12543;53.364;-1.504;2022-09-09T08:31:59;16.00;99.90
24410;DHT22;12543;53.364;-1.504;2022-09-09T08:34:27;16.00;99.90
24410;DHT22;12543;53.364;-1.504;2022-09-09T08:36:56;16.10;99.90
24410;DHT22;12543;53.364;-1.504;2022-09-09T08:39:30;16.10;99.90
24410;DHT22;12543;53.364;-1.504;2022-09-09T08:50:25;16.10;99.90
24410;DHT22;12543;53.364;-1.504;2022-09-09T08:53:42;16.20;99.90
24410;DHT22;12543;53.364;-1.504;2022-09-09T08:56:14;16.20;99.90
24410;DHT22;12543;53.364;-1.504;2022-09-09T08:58:50;16.20;99.90
24410;DHT22;12543;53.364;-1.504;2022-09-09T09:06:52;16.20;99.90
24410;DHT22;12543;53.364;-1.504;2022-09-09T09:09:40;16.20;99.90
24410;DHT22;12543;53.364;-1.504;2022-09-09T09:12:22;16.20;99.90
24410;DHT22;12543;53.364;-1.504;2022-09-09T09:14:50;16.20;99.90
24410;DHT22;12543;53.364;-1.504;2022-09-09T09:17:19;16.20;99.90
24410;DHT22;12543;53.364;-1.504;2022-09-09T09:19:48;16.20;99.90
24410;DHT22;12543;53.364;-1.504;2022-09-09T09:22:35;16.20;99.90
24410;DHT22;12543;53.364;-1.504;2022-09-09T09:28:02;16.30;99.90
24410;DHT22;12543;53.364;-1.504;2022-09-09T09:30:44;16.30;99.90
24410;DHT22;12543;53.364;-1.504;2022-09-09T09:36:18;16.30;99.90
24410;DHT22;12543;53.364;-1.504;2022-09-09T09:38:58;16.30;99.90
24410;DHT22;12543;53.364;-1.504;2022-09-09T09:41:47;16.40;99.90
24410;DHT22;12543;53.364;-1.504;2022-09-09T09:44:25;16.50;99.90
24410;DHT22;12543;53.364;-1.504;2022-09-09T09:49:33;16.50;99.90
24410;DHT22;12543;53.364;-1.504;2022-09-09T09:52:02;16.60;99.90
24410;DHT22;12543;53.364;-1.504;2022-09-09T09:54:37;16.60;99.90
24410;DHT22;12543;53.364;-1.504;2022-09-09T09:57:12;16.60;99.90
24410;DHT22;12543;53.364;-1.504;2022-09-09T09:59:43;16.70;99.90
24410;DHT22;12543;53.364;-1.504;2022-09-09T10:02:22;16.70;99.90
24410;DHT22;12543;53.364;-1.504;2022-09-09T10:07:34;17.00;99.90
24410;DHT22;12543;53.364;-1.504;2022-09-09T10:10:04;17.30;99.90
24410;DHT22;12543;53.364;-1.504;2022-09-09T10:12:59;17.70;99.90
24410;DHT22;12543;53.364;-1.504;2022-09-09T10:30:24;22.40;99.90
24410;DHT22;12543;53.364;-1.504;2022-09-09T10:33:28;23.30;99.90
24410;DHT22;12543;53.364;-1.504;2022-09-09T10:38:46;24.60;99.90
24410;DHT22;12543;53.364;-1.504;2022-09-09T10:56:16;26.20;99.90
24410;DHT22;12543;53.364;-1.504;2022-09-09T10:58:53;26.20;99.90
24410;DHT22;12543;53.364;-1.504;2022-09-09T11:01:44;26.40;99.90
24410;DHT22;12543;53.364;-1.504;2022-09-09T11:06:54;26.90;99.90
24410;DHT22;12543;53.364;-1.504;2022-09-09T11:09:30;27.10;99.90
24410;DHT22;12543;53.364;-1.504;2022-09-09T11:12:00;27.10;99.90
24410;DHT22;12543;53.364;-1.504;2022-09-09T11:15:36;27.00;99.90
24410;DHT22;12543;53.364;-1.504;2022-09-09T11:17:42;26.80;99.90
24410;DHT22;12543;53.364;-1.504;2022-09-09T11:20:14;26.80;99.90
24410;DHT22;12543;53.364;-1.504;2022-09-09T11:44:40;29.80;99.90
24410;DHT22;12543;53.364;-1.504;2022-09-09T11:47:37;29.60;99.90
24410;DHT22;12543;53.364;-1.504;2022-09-09T11:50:36;29.10;99.90
24410;DHT22;12543;53.364;-1.504;2022-09-09T11:53:23;28.30;99.90
24410;DHT22;12543;53.364;-1.504;2022-09-09T11:56:12;27.80;99.90
24410;DHT22;12543;53.364;-1.504;2022-09-09T11:58:54;27.30;99.90
24410;DHT22;12543;53.364;-1.504;2022-09-09T12:11:51;25.30;99.90
24410;DHT22;12543;53.364;-1.504;2022-09-09T12:14:54;25.00;99.90
24410;DHT22;12543;53.364;-1.504;2022-09-09T12:17:24;24.70;99.90
24410;DHT22;12543;53.364;-1.504;2022-09-09T12:20:04;24.50;99.90
24410;DHT22;12543;53.364;-1.504;2022-09-09T12:22:37;24.40;99.90
24410;DHT22;12543;53.364;-1.504;2022-09-09T12:28:15;24.40;99.90
24410;DHT22;12543;53.364;-1.504;2022-09-09T12:33:24;24.50;99.90
24410;DHT22;12543;53.364;-1.504;2022-09-09T12:36:00;24.50;99.90
24410;DHT22;12543;53.364;-1.504;2022-09-09T12:38:39;24.40;99.90
24410;DHT22;12543;53.364;-1.504;2022-09-09T12:41:21;24.10;99.90
24410;DHT22;12543;53.364;-1.504;2022-09-09T12:43:50;24.00;99.90
24410;DHT22;12543;53.364;-1.504;2022-09-09T12:46:33;23.90;99.90
24410;DHT22;12543;53.364;-1.504;2022-09-09T12:49:03;23.70;99.90
24410;DHT22;12543;53.364;-1.504;2022-09-09T12:51:32;23.60;99.90
24410;DHT22;12543;53.364;-1.504;2022-09-09T12:54:00;23.40;99.90
24410;DHT22;12543;53.364;-1.504;2022-09-09T12:56:30;23.20;99.90
24410;DHT22;12543;53.364;-1.504;2022-09-09T12:58:58;23.00;99.90
24410;DHT22;12543;53.364;-1.504;2022-09-09T13:01:31;22.80;99.90
24410;DHT22;12543;53.364;-1.504;2022-09-09T13:04:00;22.60;99.90
24410;DHT22;12543;53.364;-1.504;2022-09-09T13:06:32;22.40;99.90
24410;DHT22;12543;53.364;-1.504;2022-09-09T13:09:01;22.20;99.90
24410;DHT22;12543;53.364;-1.504;2022-09-09T13:14:03;21.70;99.90
24410;DHT22;12543;53.364;-1.504;2022-09-09T13:16:33;21.60;99.90
24410;DHT22;12543;53.364;-1.504;2022-09-09T13:19:15;21.40;99.90
24410;DHT22;12543;53.364;-1.504;2022-09-09T13:21:43;21.10;99.90
24410;DHT22;12543;53.364;-1.504;2022-09-09T13:26:58;20.90;99.90
24410;DHT22;12543;53.364;-1.504;2022-09-09T13:29:25;20.80;99.90
24410;DHT22;12543;53.364;-1.504;2022-09-09T13:31:53;20.70;99.90
24410;DHT22;12543;53.364;-1.504;2022-09-09T13:34:32;20.60;99.90
24410;DHT22;12543;53.364;-1.504;2022-09-09T13:37:02;20.50;99.90
24410;DHT22;12543;53.364;-1.504;2022-09-09T13:39:30;20.40;99.90
24410;DHT22;12543;53.364;-1.504;2022-09-09T13:41:57;20.30;99.90
24410;DHT22;12543;53.364;-1.504;2022-09-09T13:44:27;20.20;99.90
24410;DHT22;12543;53.364;-1.504;2022-09-09T13:47:15;20.10;99.90
24410;DHT22;12543;53.364;-1.504;2022-09-09T13:49:44;20.00;99.90
24410;DHT22;12543;53.364;-1.504;2022-09-09T13:52:13;19.90;99.90
24410;DHT22;12543;53.364;-1.504;2022-09-09T13:54:50;19.80;99.90
24410;DHT22;12543;53.364;-1.504;2022-09-09T13:57:22;19.70;99.90
24410;DHT22;12543;53.364;-1.504;2022-09-09T13:59:49;19.70;99.90
24410;DHT22;12543;53.364;-1.504;2022-09-09T14:02:32;19.60;99.90
24410;DHT22;12543;53.364;-1.504;2022-09-09T14:05:00;19.60;99.90
24410;DHT22;12543;53.364;-1.504;2022-09-09T14:07:27;19.60;99.90
24410;DHT22;12543;53.364;-1.504;2022-09-09T14:09:55;19.50;99.90
24410;DHT22;12543;53.364;-1.504;2022-09-09T14:12:22;19.50;99.90
24410;DHT22;12543;53.364;-1.504;2022-09-09T14:14:49;19.50;99.90
24410;DHT22;12543;53.364;-1.504;2022-09-09T14:17:17;19.40;99.90
24410;DHT22;12543;53.364;-1.504;2022-09-09T14:19:44;19.40;99.90
24410;DHT22;12543;53.364;-1.504;2022-09-09T14:22:12;19.40;99.90
24410;DHT22;12543;53.364;-1.504;2022-09-09T14:24:39;19.40;99.90
24410;DHT22;12543;53.364;-1.504;2022-09-09T14:27:07;19.40;99.90
24410;DHT22;12543;53.364;-1.504;2022-09-09T14:29:35;19.30;99.90
24410;DHT22;12543;53.364;-1.504;2022-09-09T14:32:02;19.30;99.90
24410;DHT22;12543;53.364;-1.504;2022-09-09T14:34:30;19.20;99.90
24410;DHT22;12543;53.364;-1.504;2022-09-09T14:37:01;19.10;99.90
24410;DHT22;12543;53.364;-1.504;2022-09-09T14:39:28;18.90;99.90
24410;DHT22;12543;53.364;-1.504;2022-09-09T14:41:58;18.90;99.90
24410;DHT22;12543;53.364;-1.504;2022-09-09T14:44:25;18.70;99.90
24410;DHT22;12543;53.364;-1.504;2022-09-09T14:46:52;18.60;99.90
24410;DHT22;12543;53.364;-1.504;2022-09-09T14:49:20;18.50;99.90
24410;DHT22;12543;53.364;-1.504;2022-09-09T14:51:47;18.50;99.90
24410;DHT22;12543;53.364;-1.504;2022-09-09T14:54:15;18.40;99.90
24410;DHT22;12543;53.364;-1.504;2022-09-09T14:56:43;18.40;99.90
24410;DHT22;12543;53.364;-1.504;2022-09-09T14:59:10;18.40;99.90
24410;DHT22;12543;53.364;-1.504;2022-09-09T15:01:40;18.40;99.90
24410;DHT22;12543;53.364;-1.504;2022-09-09T15:04:12;18.30;99.90
24410;DHT22;12543;53.364;-1.504;2022-09-09T15:06:41;18.40;99.90
24410;DHT22;12543;53.364;-1.504;2022-09-09T15:09:09;18.30;99.90
24410;DHT22;12543;53.364;-1.504;2022-09-09T15:11:40;18.40;99.90
24410;DHT22;12543;53.364;-1.504;2022-09-09T15:14:08;18.50;99.90
24410;DHT22;12543;53.364;-1.504;2022-09-09T15:16:36;18.50;99.90
24410;DHT22;12543;53.364;-1.504;2022-09-09T15:19:03;18.50;99.90
24410;DHT22;12543;53.364;-1.504;2022-09-09T15:21:33;18.60;99.90
24410;DHT22;12543;53.364;-1.504;2022-09-09T15:24:01;18.60;99.90
24410;DHT22;12543;53.364;-1.504;2022-09-09T15:26:28;18.60;99.90
24410;DHT22;12543;53.364;-1.504;2022-09-09T15:28:57;18.70;99.90
24410;DHT22;12543;53.364;-1.504;2022-09-09T15:31:28;18.70;99.90
24410;DHT22;12543;53.364;-1.504;2022-09-09T15:33:59;18.70;99.90
24410;DHT22;12543;53.364;-1.504;2022-09-09T15:36:37;18.80;99.90
24410;DHT22;12543;53.364;-1.504;2022-09-09T15:39:07;18.80;99.90
24410;DHT22;12543;53.364;-1.504;2022-09-09T15:41:34;18.80;99.90
24410;DHT22;12543;53.364;-1.504;2022-09-09T15:44:02;18.80;99.90
24410;DHT22;12543;53.364;-1.504;2022-09-09T15:46:50;18.80;99.90
24410;DHT22;12543;53.364;-1.504;2022-09-09T15:49:27;18.70;99.90
24410;DHT22;12543;53.364;-1.504;2022-09-09T15:51:56;18.80;99.90
24410;DHT22;12543;53.364;-1.504;2022-09-09T15:54:25;18.70;99.90
24410;DHT22;12543;53.364;-1.504;2022-09-09T15:56:56;18.70;99.90
24410;DHT22;12543;53.364;-1.504;2022-09-09T15:59:24;18.70;99.90
24410;DHT22;12543;53.364;-1.504;2022-09-09T16:01:52;18.60;99.90
24410;DHT22;12543;53.364;-1.504;2022-09-09T16:04:20;18.60;99.90
24410;DHT22;12543;53.364;-1.504;2022-09-09T16:07:02;18.50;99.90
24410;DHT22;12543;53.364;-1.504;2022-09-09T16:09:30;18.50;99.90
24410;DHT22;12543;53.364;-1.504;2022-09-09T16:11:59;18.40;99.90
24410;DHT22;12543;53.364;-1.504;2022-09-09T16:14:27;18.40;99.90
24410;DHT22;12543;53.364;-1.504;2022-09-09T16:16:54;18.30;99.90
24410;DHT22;12543;53.364;-1.504;2022-09-09T16:19:22;18.20;99.90
24410;DHT22;12543;53.364;-1.504;2022-09-09T16:21:49;18.20;99.90
24410;DHT22;12543;53.364;-1.504;2022-09-09T16:24:18;18.10;99.90
24410;DHT22;12543;53.364;-1.504;2022-09-09T16:26:50;18.00;99.90
24410;DHT22;12543;53.364;-1.504;2022-09-09T16:29:19;18.00;99.90
24410;DHT22;12543;53.364;-1.504;2022-09-09T16:31:49;17.90;99.90
24410;DHT22;12543;53.364;-1.504;2022-09-09T16:34:17;17.90;99.90
24410;DHT22;12543;53.364;-1.504;2022-09-09T16:36:44;17.80;99.90
24410;DHT22;12543;53.364;-1.504;2022-09-09T16:39:13;17.80;99.90
24410;DHT22;12543;53.364;-1.504;2022-09-09T16:41:41;17.80;99.90
24410;DHT22;12543;53.364;-1.504;2022-09-09T16:44:11;17.80;99.90
24410;DHT22;12543;53.364;-1.504;2022-09-09T16:46:42;17.80;99.90
24410;DHT22;12543;53.364;-1.504;2022-09-09T16:49:13;17.80;99.90
24410;DHT22;12543;53.364;-1.504;2022-09-09T16:51:48;17.80;99.90
24410;DHT22;12543;53.364;-1.504;2022-09-09T16:54:17;17.80;99.90
24410;DHT22;12543;53.364;-1.504;2022-09-09T16:56:46;17.80;99.90
24410;DHT22;12543;53.364;-1.504;2022-09-09T16:59:18;17.80;99.90
24410;DHT22;12543;53.364;-1.504;2022-09-09T17:01:48;17.90;99.90
24410;DHT22;12543;53.364;-1.504;2022-09-09T17:04:18;17.90;99.90
24410;DHT22;12543;53.364;-1.504;2022-09-09T17:06:49;17.90;99.90
24410;DHT22;12543;53.364;-1.504;2022-09-09T17:09:18;17.90;99.90
24410;DHT22;12543;53.364;-1.504;2022-09-09T17:12:06;17.90;99.90
24410;DHT22;12543;53.364;-1.504;2022-09-09T17:14:35;17.90;99.90
24410;DHT22;12543;53.364;-1.504;2022-09-09T17:17:05;18.00;99.90
24410;DHT22;12543;53.364;-1.504;2022-09-09T17:19:52;18.00;99.90
24410;DHT22;12543;53.364;-1.504;2022-09-09T17:22:20;18.00;99.90
24410;DHT22;12543;53.364;-1.504;2022-09-09T17:24:47;17.90;99.90
24410;DHT22;12543;53.364;-1.504;2022-09-09T17:27:18;17.90;99.90
24410;DHT22;12543;53.364;-1.504;2022-09-09T17:29:49;17.90;99.90
24410;DHT22;12543;53.364;-1.504;2022-09-09T17:32:16;17.90;99.90
24410;DHT22;12543;53.364;-1.504;2022-09-09T17:34:44;17.80;99.90
24410;DHT22;12543;53.364;-1.504;2022-09-09T17:37:21;17.70;99.90
24410;DHT22;12543;53.364;-1.504;2022-09-09T17:39:49;17.80;99.90
24410;DHT22;12543;53.364;-1.504;2022-09-09T17:42:16;17.70;99.90
24410;DHT22;12543;53.364;-1.504;2022-09-09T17:44:43;17.60;99.90
24410;DHT22;12543;53.364;-1.504;2022-09-09T17:47:13;17.60;99.90
24410;DHT22;12543;53.364;-1.504;2022-09-09T17:49:48;17.60;99.90
24410;DHT22;12543;53.364;-1.504;2022-09-09T17:52:26;17.50;99.90
24410;DHT22;12543;53.364;-1.504;2022-09-09T17:55:04;17.50;99.90
24410;DHT22;12543;53.364;-1.504;2022-09-09T17:57:33;17.40;99.90
24410;DHT22;12543;53.364;-1.504;2022-09-09T18:00:01;17.40;99.90
24410;DHT22;12543;53.364;-1.504;2022-09-09T18:02:37;17.40;99.90
24410;DHT22;12543;53.364;-1.504;2022-09-09T18:05:05;17.40;99.90
24410;DHT22;12543;53.364;-1.504;2022-09-09T18:07:32;17.40;99.90
24410;DHT22;12543;53.364;-1.504;2022-09-09T18:10:00;17.40;99.90
24410;DHT22;12543;53.364;-1.504;2022-09-09T18:12:29;17.40;99.90
24410;DHT22;12543;53.364;-1.504;2022-09-09T18:15:06;17.40;99.90